sensor_id;sensor_type;location;lat;lon;timestamp;P1;durP1;ratioP1;P2;durP2;ratioP2
58470;SDS011;44258;51.288;12.068;2023-05-29T00:05:06;13.23;;;5.95;;
58470;SDS011;44258;51.288;12.068;2023-05-29T00:07:54;13.73;;;6.50;;
58470;SDS011;44258;51.288;12.068;2023-05-29T00:10:41;11.18;;;5.97;;
58470;SDS011;44258;51.288;12.068;2023-05-29T00:16:15;12.73;;;6.30;;
58470;SDS011;44258;51.288;12.068;2023-05-29T00:19:03;14.57;;;6.63;;
58470;SDS011;44258;51.288;12.068;2023-05-29T00:24:38;12.88;;;6.65;;
58470;SDS011;44258;51.288;12.068;2023-05-29T00:27:29;13.25;;;6.63;;
58470;SDS011;44258;51.288;12.068;2023-05-29T00:30:15;12.18;;;6.32;;
58470;SDS011;44258;51.288;12.068;2023-05-29T00:35:49;11.98;;;6.10;;
58470;SDS011;44258;51.288;12.068;2023-05-29T00:38:36;16.05;;;5.72;;
58470;SDS011;44258;51.288;12.068;2023-05-29T00:41:27;13.07;;;6.25;;
58470;SDS011;44258;51.288;12.068;2023-05-29T00:44:13;12.43;;;6.13;;
58470;SDS011;44258;51.288;12.068;2023-05-29T00:49:47;11.40;;;5.85;;
58470;SDS011;44258;51.288;12.068;2023-05-29T00:52:36;12.13;;;5.65;;
58470;SDS011;44258;51.288;12.068;2023-05-29T00:55:24;14.27;;;5.50;;
58470;SDS011;44258;51.288;12.068;2023-05-29T00:58:15;11.77;;;5.60;;
58470;SDS011;44258;51.288;12.068;2023-05-29T01:01:02;13.93;;;5.60;;
58470;SDS011;44258;51.288;12.068;2023-05-29T01:03:49;13.65;;;6.03;;
58470;SDS011;44258;51.288;12.068;2023-05-29T01:06:39;10.35;;;5.25;;
58470;SDS011;44258;51.288;12.068;2023-05-29T01:09:26;11.82;;;5.47;;
58470;SDS011;44258;51.288;12.068;2023-05-29T01:12:17;9.90;;;5.55;;
58470;SDS011;44258;51.288;12.068;2023-05-29T01:15:24;11.02;;;5.07;;
58470;SDS011;44258;51.288;12.068;2023-05-29T01:18:22;10.43;;;4.68;;
58470;SDS011;44258;51.288;12.068;2023-05-29T01:21:18;13.93;;;5.35;;
58470;SDS011;44258;51.288;12.068;2023-05-29T01:27:08;10.43;;;4.78;;
58470;SDS011;44258;51.288;12.068;2023-05-29T01:29:58;10.68;;;4.82;;
58470;SDS011;44258;51.288;12.068;2023-05-29T01:32:48;11.38;;;4.65;;
58470;SDS011;44258;51.288;12.068;2023-05-29T01:35:36;13.48;;;5.28;;
58470;SDS011;44258;51.288;12.068;2023-05-29T01:38:28;11.50;;;4.95;;
58470;SDS011;44258;51.288;12.068;2023-05-29T01:41:17;13.52;;;5.93;;
58470;SDS011;44258;51.288;12.068;2023-05-29T01:44:09;9.52;;;4.65;;
58470;SDS011;44258;51.288;12.068;2023-05-29T01:46:57;10.55;;;5.07;;
58470;SDS011;44258;51.288;12.068;2023-05-29T01:49:47;12.25;;;5.30;;
58470;SDS011;44258;51.288;12.068;2023-05-29T01:52:36;12.38;;;5.43;;
58470;SDS011;44258;51.288;12.068;2023-05-29T01:55:24;12.30;;;5.10;;
58470;SDS011;44258;51.288;12.068;2023-05-29T01:58:11;11.93;;;5.45;;
58470;SDS011;44258;51.288;12.068;2023-05-29T02:01:00;10.40;;;4.65;;
58470;SDS011;44258;51.288;12.068;2023-05-29T02:03:49;10.55;;;4.53;;
58470;SDS011;44258;51.288;12.068;2023-05-29T02:06:36;11.98;;;4.93;;
58470;SDS011;44258;51.288;12.068;2023-05-29T02:09:23;11.38;;;5.32;;
58470;SDS011;44258;51.288;12.068;2023-05-29T02:12:11;10.43;;;5.15;;
58470;SDS011;44258;51.288;12.068;2023-05-29T02:14:58;11.35;;;5.00;;
58470;SDS011;44258;51.288;12.068;2023-05-29T02:17:47;10.75;;;4.78;;
58470;SDS011;44258;51.288;12.068;2023-05-29T02:20:35;9.95;;;5.05;;
58470;SDS011;44258;51.288;12.068;2023-05-29T02:23:22;10.98;;;5.10;;
58470;SDS011;44258;51.288;12.068;2023-05-29T02:26:09;11.05;;;4.97;;
58470;SDS011;44258;51.288;12.068;2023-05-29T02:28:59;11.15;;;5.00;;
58470;SDS011;44258;51.288;12.068;2023-05-29T02:34:37;13.13;;;5.50;;
58470;SDS011;44258;51.288;12.068;2023-05-29T02:37:26;12.43;;;4.78;;
58470;SDS011;44258;51.288;12.068;2023-05-29T02:40:13;12.38;;;6.03;;
58470;SDS011;44258;51.288;12.068;2023-05-29T02:45:47;9.85;;;4.95;;
58470;SDS011;44258;51.288;12.068;2023-05-29T02:48:33;10.30;;;5.45;;
58470;SDS011;44258;51.288;12.068;2023-05-29T02:51:22;11.45;;;5.35;;
58470;SDS011;44258;51.288;12.068;2023-05-29T02:54:08;10.90;;;5.35;;
58470;SDS011;44258;51.288;12.068;2023-05-29T02:56:57;11.80;;;5.00;;
58470;SDS011;44258;51.288;12.068;2023-05-29T02:59:44;12.65;;;4.88;;
58470;SDS011;44258;51.288;12.068;2023-05-29T03:02:31;9.52;;;4.75;;
58470;SDS011;44258;51.288;12.068;2023-05-29T03:05:18;13.55;;;5.03;;
58470;SDS011;44258;51.288;12.068;2023-05-29T03:08:08;10.95;;;4.75;;
58470;SDS011;44258;51.288;12.068;2023-05-29T03:10:55;11.50;;;5.03;;
58470;SDS011;44258;51.288;12.068;2023-05-29T03:13:42;13.15;;;4.57;;
58470;SDS011;44258;51.288;12.068;2023-05-29T03:16:31;11.55;;;4.65;;
58470;SDS011;44258;51.288;12.068;2023-05-29T03:19:18;11.43;;;5.18;;
58470;SDS011;44258;51.288;12.068;2023-05-29T03:24:53;10.45;;;4.88;;
58470;SDS011;44258;51.288;12.068;2023-05-29T03:27:40;9.73;;;4.60;;
58470;SDS011;44258;51.288;12.068;2023-05-29T03:30:27;11.65;;;5.30;;
58470;SDS011;44258;51.288;12.068;2023-05-29T03:33:14;13.18;;;5.25;;
58470;SDS011;44258;51.288;12.068;2023-05-29T03:36:01;10.25;;;4.82;;
58470;SDS011;44258;51.288;12.068;2023-05-29T03:41:37;10.20;;;4.60;;
58470;SDS011;44258;51.288;12.068;2023-05-29T03:44:23;13.63;;;4.90;;
58470;SDS011;44258;51.288;12.068;2023-05-29T03:47:10;13.35;;;4.45;;
58470;SDS011;44258;51.288;12.068;2023-05-29T03:49:57;10.95;;;4.70;;
58470;SDS011;44258;51.288;12.068;2023-05-29T03:52:44;10.60;;;4.90;;
58470;SDS011;44258;51.288;12.068;2023-05-29T03:58:19;11.48;;;4.82;;
58470;SDS011;44258;51.288;12.068;2023-05-29T04:01:06;11.45;;;4.22;;
58470;SDS011;44258;51.288;12.068;2023-05-29T04:03:53;11.45;;;4.70;;
58470;SDS011;44258;51.288;12.068;2023-05-29T04:06:41;12.57;;;4.78;;
58470;SDS011;44258;51.288;12.068;2023-05-29T04:09:27;12.75;;;4.88;;
58470;SDS011;44258;51.288;12.068;2023-05-29T04:15:07;13.13;;;4.25;;
58470;SDS011;44258;51.288;12.068;2023-05-29T04:17:55;13.00;;;4.72;;
58470;SDS011;44258;51.288;12.068;2023-05-29T04:23:31;12.52;;;4.72;;
58470;SDS011;44258;51.288;12.068;2023-05-29T04:26:19;13.85;;;4.93;;
58470;SDS011;44258;51.288;12.068;2023-05-29T04:29:11;11.48;;;4.78;;
58470;SDS011;44258;51.288;12.068;2023-05-29T04:32:00;12.65;;;5.15;;
58470;SDS011;44258;51.288;12.068;2023-05-29T04:34:49;14.45;;;4.85;;
58470;SDS011;44258;51.288;12.068;2023-05-29T04:37:38;12.38;;;4.82;;
58470;SDS011;44258;51.288;12.068;2023-05-29T04:40:25;9.75;;;4.50;;
58470;SDS011;44258;51.288;12.068;2023-05-29T04:43:12;11.85;;;4.75;;
58470;SDS011;44258;51.288;12.068;2023-05-29T04:46:03;13.82;;;4.90;;
58470;SDS011;44258;51.288;12.068;2023-05-29T04:48:54;12.93;;;4.90;;
58470;SDS011;44258;51.288;12.068;2023-05-29T04:51:41;13.20;;;5.00;;
58470;SDS011;44258;51.288;12.068;2023-05-29T04:54:28;12.80;;;5.35;;
58470;SDS011;44258;51.288;12.068;2023-05-29T04:57:15;12.52;;;5.10;;
58470;SDS011;44258;51.288;12.068;2023-05-29T05:00:02;13.80;;;4.78;;
58470;SDS011;44258;51.288;12.068;2023-05-29T05:02:50;11.65;;;4.40;;
58470;SDS011;44258;51.288;12.068;2023-05-29T05:05:39;12.43;;;4.40;;
58470;SDS011;44258;51.288;12.068;2023-05-29T05:08:26;15.70;;;4.70;;
58470;SDS011;44258;51.288;12.068;2023-05-29T05:11:13;22.95;;;5.40;;
58470;SDS011;44258;51.288;12.068;2023-05-29T05:14:02;10.40;;;4.88;;
58470;SDS011;44258;51.288;12.068;2023-05-29T05:16:49;13.73;;;5.05;;
58470;SDS011;44258;51.288;12.068;2023-05-29T05:19:38;10.60;;;4.72;;
58470;SDS011;44258;51.288;12.068;2023-05-29T05:22:26;12.30;;;4.85;;
58470;SDS011;44258;51.288;12.068;2023-05-29T05:25:13;11.63;;;5.00;;
58470;SDS011;44258;51.288;12.068;2023-05-29T05:28:04;12.30;;;4.75;;
58470;SDS011;44258;51.288;12.068;2023-05-29T05:30:51;15.70;;;4.80;;
58470;SDS011;44258;51.288;12.068;2023-05-29T05:36:25;10.30;;;4.45;;
58470;SDS011;44258;51.288;12.068;2023-05-29T05:41:59;15.15;;;4.80;;
58470;SDS011;44258;51.288;12.068;2023-05-29T05:47:33;12.88;;;4.30;;
58470;SDS011;44258;51.288;12.068;2023-05-29T05:50:20;12.63;;;4.38;;
58470;SDS011;44258;51.288;12.068;2023-05-29T05:53:07;12.77;;;4.70;;
58470;SDS011;44258;51.288;12.068;2023-05-29T05:58:47;13.55;;;4.88;;
58470;SDS011;44258;51.288;12.068;2023-05-29T06:01:38;12.18;;;4.47;;
58470;SDS011;44258;51.288;12.068;2023-05-29T06:04:29;13.75;;;5.35;;
58470;SDS011;44258;51.288;12.068;2023-05-29T06:07:16;11.95;;;4.68;;
58470;SDS011;44258;51.288;12.068;2023-05-29T06:12:52;14.40;;;4.68;;
58470;SDS011;44258;51.288;12.068;2023-05-29T06:15:38;12.60;;;4.63;;
58470;SDS011;44258;51.288;12.068;2023-05-29T06:18:28;11.15;;;4.15;;
58470;SDS011;44258;51.288;12.068;2023-05-29T06:21:15;11.23;;;4.55;;
58470;SDS011;44258;51.288;12.068;2023-05-29T06:26:49;11.00;;;4.20;;
58470;SDS011;44258;51.288;12.068;2023-05-29T06:29:37;9.82;;;4.38;;
58470;SDS011;44258;51.288;12.068;2023-05-29T06:32:24;12.30;;;4.60;;
58470;SDS011;44258;51.288;12.068;2023-05-29T06:35:13;12.85;;;4.78;;
58470;SDS011;44258;51.288;12.068;2023-05-29T06:38:00;13.30;;;4.47;;
58470;SDS011;44258;51.288;12.068;2023-05-29T06:43:33;10.75;;;4.53;;
58470;SDS011;44258;51.288;12.068;2023-05-29T06:46:26;12.57;;;4.63;;
58470;SDS011;44258;51.288;12.068;2023-05-29T06:49:13;12.32;;;4.43;;
58470;SDS011;44258;51.288;12.068;2023-05-29T06:52:00;12.68;;;4.60;;
58470;SDS011;44258;51.288;12.068;2023-05-29T06:54:47;12.90;;;4.72;;
58470;SDS011;44258;51.288;12.068;2023-05-29T07:00:20;11.02;;;4.55;;
58470;SDS011;44258;51.288;12.068;2023-05-29T07:03:09;11.18;;;4.05;;
58470;SDS011;44258;51.288;12.068;2023-05-29T07:05:56;11.20;;;4.13;;
58470;SDS011;44258;51.288;12.068;2023-05-29T07:11:30;11.40;;;4.15;;
58470;SDS011;44258;51.288;12.068;2023-05-29T07:17:03;11.40;;;4.55;;
58470;SDS011;44258;51.288;12.068;2023-05-29T07:19:52;11.02;;;4.10;;
58470;SDS011;44258;51.288;12.068;2023-05-29T07:22:39;9.73;;;3.97;;
58470;SDS011;44258;51.288;12.068;2023-05-29T07:25:26;9.80;;;4.57;;
58470;SDS011;44258;51.288;12.068;2023-05-29T07:28:13;12.38;;;4.35;;
58470;SDS011;44258;51.288;12.068;2023-05-29T07:31:00;9.73;;;3.97;;
58470;SDS011;44258;51.288;12.068;2023-05-29T07:33:47;8.68;;;3.80;;
58470;SDS011;44258;51.288;12.068;2023-05-29T07:36:35;12.05;;;4.35;;
58470;SDS011;44258;51.288;12.068;2023-05-29T07:39:22;11.10;;;4.03;;
58470;SDS011;44258;51.288;12.068;2023-05-29T07:42:09;9.95;;;4.05;;
58470;SDS011;44258;51.288;12.068;2023-05-29T07:44:56;11.70;;;4.10;;
58470;SDS011;44258;51.288;12.068;2023-05-29T07:50:30;9.53;;;4.33;;
58470;SDS011;44258;51.288;12.068;2023-05-29T07:53:19;12.43;;;4.43;;
58470;SDS011;44258;51.288;12.068;2023-05-29T07:56:09;10.50;;;3.83;;
58470;SDS011;44258;51.288;12.068;2023-05-29T07:58:56;12.95;;;4.30;;
58470;SDS011;44258;51.288;12.068;2023-05-29T08:01:44;12.10;;;4.13;;
58470;SDS011;44258;51.288;12.068;2023-05-29T08:04:32;13.10;;;3.90;;
58470;SDS011;44258;51.288;12.068;2023-05-29T08:07:20;12.02;;;3.90;;
58470;SDS011;44258;51.288;12.068;2023-05-29T08:10:09;12.15;;;4.13;;
58470;SDS011;44258;51.288;12.068;2023-05-29T08:12:56;9.75;;;4.15;;
58470;SDS011;44258;51.288;12.068;2023-05-29T08:15:43;9.82;;;3.90;;
58470;SDS011;44258;51.288;12.068;2023-05-29T08:18:30;11.18;;;3.83;;
58470;SDS011;44258;51.288;12.068;2023-05-29T08:21:18;12.63;;;4.30;;
58470;SDS011;44258;51.288;12.068;2023-05-29T08:24:05;9.57;;;3.95;;
58470;SDS011;44258;51.288;12.068;2023-05-29T08:26:53;10.00;;;3.53;;
58470;SDS011;44258;51.288;12.068;2023-05-29T08:29:40;9.95;;;3.85;;
58470;SDS011;44258;51.288;12.068;2023-05-29T08:32:28;9.63;;;3.70;;
58470;SDS011;44258;51.288;12.068;2023-05-29T08:35:21;9.20;;;3.53;;
58470;SDS011;44258;51.288;12.068;2023-05-29T08:38:09;9.25;;;3.55;;
58470;SDS011;44258;51.288;12.068;2023-05-29T08:40:56;11.25;;;4.47;;
58470;SDS011;44258;51.288;12.068;2023-05-29T08:43:45;12.93;;;4.43;;
58470;SDS011;44258;51.288;12.068;2023-05-29T08:46:35;11.40;;;3.63;;
58470;SDS011;44258;51.288;12.068;2023-05-29T08:49:24;13.98;;;4.15;;
58470;SDS011;44258;51.288;12.068;2023-05-29T08:52:16;13.80;;;3.70;;
58470;SDS011;44258;51.288;12.068;2023-05-29T08:55:05;11.77;;;3.47;;
58470;SDS011;44258;51.288;12.068;2023-05-29T08:57:52;7.75;;;3.00;;
58470;SDS011;44258;51.288;12.068;2023-05-29T09:00:41;11.07;;;3.90;;
58470;SDS011;44258;51.288;12.068;2023-05-29T09:03:28;10.68;;;4.05;;
58470;SDS011;44258;51.288;12.068;2023-05-29T09:06:15;11.25;;;3.83;;
58470;SDS011;44258;51.288;12.068;2023-05-29T09:09:02;10.85;;;3.75;;
58470;SDS011;44258;51.288;12.068;2023-05-29T09:11:50;7.97;;;2.90;;
58470;SDS011;44258;51.288;12.068;2023-05-29T09:14:40;7.15;;;3.10;;
58470;SDS011;44258;51.288;12.068;2023-05-29T09:17:31;11.32;;;3.20;;
58470;SDS011;44258;51.288;12.068;2023-05-29T09:20:20;7.70;;;3.13;;
58470;SDS011;44258;51.288;12.068;2023-05-29T09:23:10;9.35;;;3.45;;
58470;SDS011;44258;51.288;12.068;2023-05-29T09:26:01;9.50;;;3.53;;
58470;SDS011;44258;51.288;12.068;2023-05-29T09:28:49;9.98;;;3.47;;
58470;SDS011;44258;51.288;12.068;2023-05-29T09:31:39;8.50;;;3.33;;
58470;SDS011;44258;51.288;12.068;2023-05-29T09:34:34;10.27;;;3.28;;
58470;SDS011;44258;51.288;12.068;2023-05-29T09:37:21;7.93;;;3.30;;
58470;SDS011;44258;51.288;12.068;2023-05-29T09:40:08;11.15;;;3.38;;
58470;SDS011;44258;51.288;12.068;2023-05-29T09:43:04;7.75;;;3.10;;
58470;SDS011;44258;51.288;12.068;2023-05-29T09:45:53;10.57;;;3.30;;
58470;SDS011;44258;51.288;12.068;2023-05-29T09:48:41;7.15;;;3.05;;
58470;SDS011;44258;51.288;12.068;2023-05-29T09:51:30;8.98;;;2.90;;
58470;SDS011;44258;51.288;12.068;2023-05-29T09:54:18;8.80;;;3.53;;
58470;SDS011;44258;51.288;12.068;2023-05-29T09:57:08;9.18;;;3.42;;
58470;SDS011;44258;51.288;12.068;2023-05-29T09:59:57;9.35;;;3.50;;
58470;SDS011;44258;51.288;12.068;2023-05-29T10:02:46;8.20;;;3.30;;
58470;SDS011;44258;51.288;12.068;2023-05-29T10:05:34;7.88;;;3.00;;
58470;SDS011;44258;51.288;12.068;2023-05-29T10:08:22;8.68;;;3.30;;
58470;SDS011;44258;51.288;12.068;2023-05-29T10:11:09;7.63;;;3.00;;
58470;SDS011;44258;51.288;12.068;2023-05-29T10:14:03;7.60;;;3.10;;
58470;SDS011;44258;51.288;12.068;2023-05-29T10:16:56;6.43;;;2.80;;
58470;SDS011;44258;51.288;12.068;2023-05-29T10:19:47;10.02;;;3.15;;
58470;SDS011;44258;51.288;12.068;2023-05-29T10:22:36;7.85;;;2.92;;
58470;SDS011;44258;51.288;12.068;2023-05-29T10:25:32;7.18;;;3.33;;
58470;SDS011;44258;51.288;12.068;2023-05-29T10:28:22;6.40;;;2.80;;
58470;SDS011;44258;51.288;12.068;2023-05-29T10:31:12;9.35;;;3.15;;
58470;SDS011;44258;51.288;12.068;2023-05-29T10:34:08;9.30;;;2.85;;
58470;SDS011;44258;51.288;12.068;2023-05-29T10:37:06;9.52;;;3.25;;
58470;SDS011;44258;51.288;12.068;2023-05-29T10:40:03;10.02;;;3.67;;
58470;SDS011;44258;51.288;12.068;2023-05-29T10:42:54;7.38;;;3.33;;
58470;SDS011;44258;51.288;12.068;2023-05-29T10:45:49;7.13;;;3.05;;
58470;SDS011;44258;51.288;12.068;2023-05-29T10:48:42;7.47;;;3.40;;
58470;SDS011;44258;51.288;12.068;2023-05-29T10:51:29;9.50;;;2.75;;
58470;SDS011;44258;51.288;12.068;2023-05-29T10:54:18;7.72;;;3.00;;
58470;SDS011;44258;51.288;12.068;2023-05-29T10:57:08;6.90;;;2.92;;
58470;SDS011;44258;51.288;12.068;2023-05-29T11:00:00;8.02;;;2.97;;
58470;SDS011;44258;51.288;12.068;2023-05-29T11:02:52;8.23;;;2.97;;
58470;SDS011;44258;51.288;12.068;2023-05-29T11:08:45;9.40;;;3.78;;
58470;SDS011;44258;51.288;12.068;2023-05-29T11:11:33;7.03;;;3.28;;
58470;SDS011;44258;51.288;12.068;2023-05-29T11:14:25;8.43;;;2.97;;
58470;SDS011;44258;51.288;12.068;2023-05-29T11:20:42;7.30;;;2.72;;
58470;SDS011;44258;51.288;12.068;2023-05-29T11:23:31;8.45;;;2.80;;
58470;SDS011;44258;51.288;12.068;2023-05-29T11:26:19;9.38;;;3.00;;
58470;SDS011;44258;51.288;12.068;2023-05-29T11:29:07;7.75;;;2.90;;
58470;SDS011;44258;51.288;12.068;2023-05-29T11:31:58;7.70;;;3.15;;
58470;SDS011;44258;51.288;12.068;2023-05-29T11:34:50;7.22;;;2.90;;
58470;SDS011;44258;51.288;12.068;2023-05-29T11:37:42;7.30;;;2.88;;
58470;SDS011;44258;51.288;12.068;2023-05-29T11:40:34;7.88;;;2.90;;
58470;SDS011;44258;51.288;12.068;2023-05-29T11:43:22;6.30;;;2.78;;
58470;SDS011;44258;51.288;12.068;2023-05-29T11:46:19;7.15;;;2.80;;
58470;SDS011;44258;51.288;12.068;2023-05-29T11:51:54;8.23;;;3.00;;
58470;SDS011;44258;51.288;12.068;2023-05-29T11:55:05;7.25;;;2.78;;
58470;SDS011;44258;51.288;12.068;2023-05-29T11:57:55;9.05;;;2.80;;
58470;SDS011;44258;51.288;12.068;2023-05-29T12:00:43;7.60;;;2.88;;
58470;SDS011;44258;51.288;12.068;2023-05-29T12:03:36;7.20;;;3.08;;
58470;SDS011;44258;51.288;12.068;2023-05-29T12:06:31;6.35;;;2.85;;
58470;SDS011;44258;51.288;12.068;2023-05-29T12:09:24;8.32;;;2.80;;
58470;SDS011;44258;51.288;12.068;2023-05-29T12:12:12;6.32;;;2.80;;
58470;SDS011;44258;51.288;12.068;2023-05-29T12:15:00;6.45;;;2.67;;
58470;SDS011;44258;51.288;12.068;2023-05-29T12:17:48;8.07;;;2.80;;
58470;SDS011;44258;51.288;12.068;2023-05-29T12:20:36;7.15;;;2.83;;
58470;SDS011;44258;51.288;12.068;2023-05-29T12:23:23;7.15;;;3.00;;
58470;SDS011;44258;51.288;12.068;2023-05-29T12:26:11;6.20;;;2.70;;
58470;SDS011;44258;51.288;12.068;2023-05-29T12:29:02;7.00;;;2.72;;
58470;SDS011;44258;51.288;12.068;2023-05-29T12:31:57;6.45;;;2.80;;
58470;SDS011;44258;51.288;12.068;2023-05-29T12:34:47;8.43;;;2.53;;
58470;SDS011;44258;51.288;12.068;2023-05-29T12:37:35;7.38;;;2.78;;
58470;SDS011;44258;51.288;12.068;2023-05-29T12:40:23;7.60;;;2.95;;
58470;SDS011;44258;51.288;12.068;2023-05-29T12:43:12;6.95;;;2.72;;
58470;SDS011;44258;51.288;12.068;2023-05-29T12:45:59;7.63;;;2.72;;
58470;SDS011;44258;51.288;12.068;2023-05-29T12:48:46;7.88;;;2.72;;
58470;SDS011;44258;51.288;12.068;2023-05-29T12:51:33;7.65;;;2.60;;
58470;SDS011;44258;51.288;12.068;2023-05-29T12:54:20;8.20;;;3.20;;
58470;SDS011;44258;51.288;12.068;2023-05-29T12:57:08;6.88;;;2.92;;
58470;SDS011;44258;51.288;12.068;2023-05-29T12:59:57;7.57;;;3.10;;
58470;SDS011;44258;51.288;12.068;2023-05-29T13:02:43;6.47;;;2.70;;
58470;SDS011;44258;51.288;12.068;2023-05-29T13:05:30;6.53;;;2.53;;
58470;SDS011;44258;51.288;12.068;2023-05-29T13:08:17;8.88;;;2.90;;
58470;SDS011;44258;51.288;12.068;2023-05-29T13:11:04;6.93;;;2.67;;
58470;SDS011;44258;51.288;12.068;2023-05-29T13:13:51;8.63;;;2.88;;
58470;SDS011;44258;51.288;12.068;2023-05-29T13:16:39;7.53;;;2.90;;
58470;SDS011;44258;51.288;12.068;2023-05-29T13:19:26;6.28;;;2.60;;
58470;SDS011;44258;51.288;12.068;2023-05-29T13:22:13;7.57;;;2.88;;
58470;SDS011;44258;51.288;12.068;2023-05-29T13:25:00;9.38;;;2.95;;
58470;SDS011;44258;51.288;12.068;2023-05-29T13:27:49;7.47;;;2.83;;
58470;SDS011;44258;51.288;12.068;2023-05-29T13:30:36;6.07;;;3.22;;
58470;SDS011;44258;51.288;12.068;2023-05-29T13:33:25;8.25;;;3.20;;
58470;SDS011;44258;51.288;12.068;2023-05-29T13:36:12;6.57;;;2.85;;
58470;SDS011;44258;51.288;12.068;2023-05-29T13:38:59;7.07;;;2.80;;
58470;SDS011;44258;51.288;12.068;2023-05-29T13:41:46;8.55;;;3.15;;
58470;SDS011;44258;51.288;12.068;2023-05-29T13:44:33;7.10;;;2.80;;
58470;SDS011;44258;51.288;12.068;2023-05-29T13:47:21;8.25;;;2.65;;
58470;SDS011;44258;51.288;12.068;2023-05-29T13:50:10;7.05;;;2.90;;
58470;SDS011;44258;51.288;12.068;2023-05-29T13:52:57;7.72;;;3.10;;
58470;SDS011;44258;51.288;12.068;2023-05-29T13:55:44;7.45;;;2.92;;
58470;SDS011;44258;51.288;12.068;2023-05-29T13:58:31;6.97;;;2.75;;
58470;SDS011;44258;51.288;12.068;2023-05-29T14:01:18;9.27;;;3.10;;
58470;SDS011;44258;51.288;12.068;2023-05-29T14:04:07;7.93;;;3.20;;
58470;SDS011;44258;51.288;12.068;2023-05-29T14:06:55;7.82;;;3.00;;
58470;SDS011;44258;51.288;12.068;2023-05-29T14:09:43;5.63;;;2.85;;
58470;SDS011;44258;51.288;12.068;2023-05-29T14:12:32;8.30;;;3.00;;
58470;SDS011;44258;51.288;12.068;2023-05-29T14:15:19;8.20;;;2.67;;
58470;SDS011;44258;51.288;12.068;2023-05-29T14:18:08;6.22;;;2.80;;
58470;SDS011;44258;51.288;12.068;2023-05-29T14:20:58;7.20;;;2.72;;
58470;SDS011;44258;51.288;12.068;2023-05-29T14:23:53;6.68;;;2.63;;
58470;SDS011;44258;51.288;12.068;2023-05-29T14:26:48;7.45;;;2.60;;
58470;SDS011;44258;51.288;12.068;2023-05-29T14:29:39;6.65;;;3.38;;
58470;SDS011;44258;51.288;12.068;2023-05-29T14:32:25;8.18;;;2.80;;
58470;SDS011;44258;51.288;12.068;2023-05-29T14:35:12;10.20;;;3.05;;
58470;SDS011;44258;51.288;12.068;2023-05-29T14:37:59;7.82;;;2.83;;
58470;SDS011;44258;51.288;12.068;2023-05-29T14:40:47;7.97;;;3.28;;
58470;SDS011;44258;51.288;12.068;2023-05-29T14:43:34;7.10;;;2.83;;
58470;SDS011;44258;51.288;12.068;2023-05-29T14:46:24;8.80;;;2.90;;
58470;SDS011;44258;51.288;12.068;2023-05-29T14:49:16;6.88;;;2.80;;
58470;SDS011;44258;51.288;12.068;2023-05-29T14:52:04;6.13;;;2.83;;
58470;SDS011;44258;51.288;12.068;2023-05-29T14:54:56;6.38;;;2.88;;
58470;SDS011;44258;51.288;12.068;2023-05-29T14:57:44;6.35;;;2.60;;
58470;SDS011;44258;51.288;12.068;2023-05-29T15:00:31;9.38;;;3.00;;
58470;SDS011;44258;51.288;12.068;2023-05-29T15:03:18;7.57;;;3.20;;
58470;SDS011;44258;51.288;12.068;2023-05-29T15:06:05;8.40;;;3.15;;
58470;SDS011;44258;51.288;12.068;2023-05-29T15:08:53;7.35;;;3.10;;
58470;SDS011;44258;51.288;12.068;2023-05-29T15:11:44;7.88;;;2.90;;
58470;SDS011;44258;51.288;12.068;2023-05-29T15:14:32;7.35;;;2.65;;
58470;SDS011;44258;51.288;12.068;2023-05-29T15:17:19;6.90;;;3.08;;
58470;SDS011;44258;51.288;12.068;2023-05-29T15:20:06;6.90;;;3.00;;
58470;SDS011;44258;51.288;12.068;2023-05-29T15:22:54;7.72;;;2.95;;
58470;SDS011;44258;51.288;12.068;2023-05-29T15:25:44;7.57;;;2.80;;
58470;SDS011;44258;51.288;12.068;2023-05-29T15:28:30;6.93;;;3.03;;
58470;SDS011;44258;51.288;12.068;2023-05-29T15:31:19;6.93;;;3.20;;
58470;SDS011;44258;51.288;12.068;2023-05-29T15:34:08;8.63;;;3.17;;
58470;SDS011;44258;51.288;12.068;2023-05-29T15:36:54;7.38;;;2.88;;
58470;SDS011;44258;51.288;12.068;2023-05-29T15:39:44;8.20;;;3.55;;
58470;SDS011;44258;51.288;12.068;2023-05-29T15:42:33;7.85;;;3.20;;
58470;SDS011;44258;51.288;12.068;2023-05-29T15:45:20;8.63;;;3.30;;
58470;SDS011;44258;51.288;12.068;2023-05-29T15:48:08;7.45;;;2.70;;
58470;SDS011;44258;51.288;12.068;2023-05-29T15:50:55;7.35;;;2.97;;
58470;SDS011;44258;51.288;12.068;2023-05-29T15:53:42;7.30;;;3.05;;
58470;SDS011;44258;51.288;12.068;2023-05-29T15:56:29;8.10;;;2.97;;
58470;SDS011;44258;51.288;12.068;2023-05-29T15:59:16;8.30;;;3.00;;
58470;SDS011;44258;51.288;12.068;2023-05-29T16:02:03;8.57;;;3.05;;
58470;SDS011;44258;51.288;12.068;2023-05-29T16:04:51;7.68;;;2.88;;
58470;SDS011;44258;51.288;12.068;2023-05-29T16:07:38;6.78;;;2.88;;
58470;SDS011;44258;51.288;12.068;2023-05-29T16:10:27;7.68;;;2.80;;
58470;SDS011;44258;51.288;12.068;2023-05-29T16:13:14;5.88;;;2.40;;
58470;SDS011;44258;51.288;12.068;2023-05-29T16:16:01;7.65;;;2.80;;
58470;SDS011;44258;51.288;12.068;2023-05-29T16:18:48;6.90;;;3.13;;
58470;SDS011;44258;51.288;12.068;2023-05-29T16:21:36;8.23;;;2.92;;
58470;SDS011;44258;51.288;12.068;2023-05-29T16:24:24;7.18;;;3.03;;
58470;SDS011;44258;51.288;12.068;2023-05-29T16:27:12;7.63;;;2.70;;
58470;SDS011;44258;51.288;12.068;2023-05-29T16:29:59;10.48;;;2.90;;
58470;SDS011;44258;51.288;12.068;2023-05-29T16:32:46;8.27;;;2.83;;
58470;SDS011;44258;51.288;12.068;2023-05-29T16:35:33;10.85;;;3.65;;
58470;SDS011;44258;51.288;12.068;2023-05-29T16:38:22;7.47;;;3.05;;
58470;SDS011;44258;51.288;12.068;2023-05-29T16:41:11;6.95;;;2.80;;
58470;SDS011;44258;51.288;12.068;2023-05-29T16:43:58;7.28;;;2.90;;
58470;SDS011;44258;51.288;12.068;2023-05-29T16:46:44;7.43;;;3.00;;
58470;SDS011;44258;51.288;12.068;2023-05-29T16:49:31;9.63;;;3.17;;
58470;SDS011;44258;51.288;12.068;2023-05-29T16:52:18;7.03;;;3.05;;
58470;SDS011;44258;51.288;12.068;2023-05-29T16:55:08;6.55;;;2.78;;
58470;SDS011;44258;51.288;12.068;2023-05-29T16:57:55;7.28;;;3.00;;
58470;SDS011;44258;51.288;12.068;2023-05-29T17:00:43;6.60;;;2.70;;
58470;SDS011;44258;51.288;12.068;2023-05-29T17:03:30;6.85;;;2.47;;
58470;SDS011;44258;51.288;12.068;2023-05-29T17:06:17;10.60;;;3.17;;
58470;SDS011;44258;51.288;12.068;2023-05-29T17:09:04;8.13;;;2.92;;
58470;SDS011;44258;51.288;12.068;2023-05-29T17:11:54;7.88;;;2.90;;
58470;SDS011;44258;51.288;12.068;2023-05-29T17:14:41;7.90;;;2.97;;
58470;SDS011;44258;51.288;12.068;2023-05-29T17:17:28;8.68;;;3.30;;
58470;SDS011;44258;51.288;12.068;2023-05-29T17:20:15;8.85;;;3.10;;
58470;SDS011;44258;51.288;12.068;2023-05-29T17:23:02;9.95;;;3.33;;
58470;SDS011;44258;51.288;12.068;2023-05-29T17:25:49;7.63;;;2.97;;
58470;SDS011;44258;51.288;12.068;2023-05-29T17:28:41;8.77;;;3.10;;
58470;SDS011;44258;51.288;12.068;2023-05-29T17:31:28;7.50;;;3.15;;
58470;SDS011;44258;51.288;12.068;2023-05-29T17:34:14;11.93;;;3.30;;
58470;SDS011;44258;51.288;12.068;2023-05-29T17:37:01;10.15;;;3.28;;
58470;SDS011;44258;51.288;12.068;2023-05-29T17:39:48;7.25;;;2.53;;
58470;SDS011;44258;51.288;12.068;2023-05-29T17:42:35;8.80;;;2.90;;
58470;SDS011;44258;51.288;12.068;2023-05-29T17:45:23;7.97;;;3.20;;
58470;SDS011;44258;51.288;12.068;2023-05-29T17:48:10;6.35;;;2.53;;
58470;SDS011;44258;51.288;12.068;2023-05-29T17:51:00;6.25;;;2.72;;